createdAt,value
2019-03-08T00:02:25.818Z,79.19
2019-03-08T00:04:54.088Z,79.40
2019-03-08T00:07:22.352Z,79.37
2019-03-08T00:09:50.926Z,79.15
2019-03-08T00:12:19.177Z,79.20
2019-03-08T00:14:47.469Z,79.47
2019-03-08T00:17:15.718Z,79.07
2019-03-08T00:19:44.015Z,79.79
2019-03-08T00:22:12.319Z,79.67
2019-03-08T00:24:40.607Z,80.54
2019-03-08T00:27:08.876Z,82.09
2019-03-08T00:29:37.132Z,82.80
2019-03-08T00:32:05.494Z,83.95
2019-03-08T00:34:33.764Z,86.59
2019-03-08T00:37:02.043Z,87.14
2019-03-08T00:39:30.303Z,88.56
2019-03-08T00:41:58.573Z,89.79
2019-03-08T00:44:26.850Z,90.52
2019-03-08T00:46:55.121Z,91.84
2019-03-08T00:49:23.400Z,91.89
2019-03-08T00:51:51.668Z,93.04
2019-03-08T00:54:19.953Z,92.94
2019-03-08T00:56:48.210Z,93.91
2019-03-08T00:59:16.477Z,94.81
2019-03-08T01:01:44.758Z,95.74
2019-03-08T01:04:13.024Z,96.64
2019-03-08T01:06:41.295Z,96.84
2019-03-08T01:09:09.572Z,97.29
2019-03-08T01:11:38.055Z,98.21
2019-03-08T01:14:06.326Z,99.76
2019-03-08T01:16:34.616Z,100.00
2019-03-08T01:19:02.890Z,100.00
2019-03-08T01:21:31.159Z,100.00
2019-03-08T01:23:59.439Z,100.00
2019-03-08T01:26:28.000Z,100.00
2019-03-08T01:28:56.295Z,100.00
2019-03-08T01:31:24.559Z,100.00
2019-03-08T01:33:52.850Z,100.00
2019-03-08T01:36:21.135Z,100.00
2019-03-08T01:38:49.405Z,100.00
2019-03-08T01:41:17.870Z,100.00
2019-03-08T01:43:46.142Z,100.00
2019-03-08T01:46:14.434Z,100.00
2019-03-08T01:48:42.694Z,100.00
2019-03-08T01:51:10.970Z,100.00
2019-03-08T01:53:40.266Z,100.00
2019-03-08T01:56:08.726Z,100.00
2019-03-08T01:58:37.000Z,100.00
2019-03-08T02:01:05.277Z,100.00
2019-03-08T02:03:33.547Z,100.00
2019-03-08T02:06:01.827Z,100.00
2019-03-08T02:08:30.125Z,100.00
2019-03-08T02:10:58.604Z,100.00
2019-03-08T02:13:26.888Z,100.00
2019-03-08T02:15:55.185Z,100.00
2019-03-08T02:18:23.453Z,100.00
2019-03-08T02:20:52.369Z,100.00
2019-03-08T02:23:20.684Z,100.00
2019-03-08T02:25:49.242Z,100.00
2019-03-08T02:28:17.546Z,100.00
2019-03-08T02:30:45.844Z,100.00
2019-03-08T02:33:14.136Z,100.00
2019-03-08T02:35:42.463Z,100.00
2019-03-08T02:38:10.703Z,100.00
2019-03-08T02:40:39.475Z,100.00
2019-03-08T02:43:12.488Z,100.00
2019-03-08T02:45:40.776Z,100.00
2019-03-08T02:48:09.077Z,100.00
2019-03-08T02:50:37.358Z,100.00
2019-03-08T02:53:05.704Z,100.00
2019-03-08T02:55:34.129Z,100.00
2019-03-08T02:58:02.417Z,100.00
2019-03-08T03:00:34.438Z,100.00
2019-03-08T03:03:02.816Z,100.00
2019-03-08T03:05:31.088Z,100.00
2019-03-08T03:07:59.341Z,100.00
2019-03-08T03:10:27.642Z,100.00
2019-03-08T03:12:55.919Z,100.00
2019-03-08T03:15:24.219Z,100.00
2019-03-08T03:17:52.599Z,100.00
2019-03-08T03:20:20.869Z,100.00
2019-03-08T03:22:49.139Z,100.00
2019-03-08T03:25:17.412Z,100.00
2019-03-08T03:27:45.703Z,100.00
2019-03-08T03:30:20.732Z,100.00
2019-03-08T03:32:49.014Z,100.00
2019-03-08T03:35:17.297Z,100.00
2019-03-08T03:37:45.860Z,100.00
2019-03-08T03:40:18.408Z,100.00
2019-03-08T03:42:46.677Z,100.00
2019-03-08T03:45:19.117Z,100.00
2019-03-08T03:47:48.033Z,100.00
2019-03-08T03:50:18.340Z,100.00
2019-03-08T03:52:46.362Z,100.00
2019-03-08T03:55:16.283Z,100.00
2019-03-08T03:57:44.549Z,100.00
2019-03-08T04:00:18.831Z,100.00
2019-03-08T04:02:47.156Z,100.00
2019-03-08T04:05:15.521Z,100.00
2019-03-08T04:07:43.797Z,100.00
2019-03-08T04:10:14.266Z,100.00
2019-03-08T04:12:42.545Z,100.00
2019-03-08T04:15:13.529Z,100.00
2019-03-08T04:17:41.831Z,100.00
2019-03-08T04:20:12.530Z,100.00
2019-03-08T04:22:40.832Z,100.00
2019-03-08T04:25:10.147Z,100.00
2019-03-08T04:27:38.418Z,100.00
2019-03-08T04:30:09.805Z,100.00
2019-03-08T04:32:38.249Z,100.00
2019-03-08T04:35:06.515Z,100.00
2019-03-08T04:37:34.802Z,100.00
2019-03-08T04:40:03.848Z,100.00
2019-03-08T04:42:32.118Z,100.00
2019-03-08T04:45:00.380Z,100.00
2019-03-08T04:47:28.942Z,100.00
2019-03-08T04:49:57.217Z,100.00
2019-03-08T04:52:25.500Z,100.00
2019-03-08T04:54:53.757Z,100.00
2019-03-08T04:57:22.019Z,100.00
2019-03-08T04:59:50.303Z,100.00
2019-03-08T05:02:18.569Z,100.00
2019-03-08T05:04:46.842Z,100.00
2019-03-08T05:07:15.124Z,100.00
2019-03-08T05:09:43.400Z,100.00
2019-03-08T05:12:11.675Z,100.00
2019-03-08T05:14:39.960Z,100.00
2019-03-08T05:17:08.254Z,100.00
2019-03-08T05:19:36.528Z,100.00
2019-03-08T05:22:04.863Z,100.00
2019-03-08T05:24:33.116Z,100.00
2019-03-08T05:27:01.389Z,100.00
2019-03-08T05:29:29.671Z,100.00
2019-03-08T05:31:57.944Z,100.00
2019-03-08T05:34:26.381Z,100.00
2019-03-08T05:36:54.659Z,100.00
2019-03-08T05:39:22.943Z,100.00
2019-03-08T05:41:52.821Z,100.00
2019-03-08T05:44:21.095Z,100.00
2019-03-08T05:46:49.368Z,100.00
2019-03-08T05:49:17.845Z,100.00
2019-03-08T05:51:46.131Z,100.00
2019-03-08T05:54:14.410Z,100.00
2019-03-08T05:56:42.700Z,100.00
2019-03-08T05:59:10.977Z,100.00
2019-03-08T06:01:39.255Z,100.00
2019-03-08T06:04:07.818Z,100.00
2019-03-08T06:06:36.110Z,100.00
2019-03-08T06:09:06.414Z,100.00
2019-03-08T06:11:34.696Z,100.00
2019-03-08T06:14:02.992Z,100.00
2019-03-08T06:16:31.241Z,100.00
2019-03-08T06:18:59.814Z,100.00
2019-03-08T06:21:28.082Z,100.00
2019-03-08T06:23:56.369Z,100.00
2019-03-08T06:26:24.655Z,100.00
2019-03-08T06:28:52.940Z,100.00
2019-03-08T06:31:21.222Z,100.00
2019-03-08T06:33:49.489Z,100.00
2019-03-08T06:36:17.948Z,100.00
2019-03-08T06:38:46.234Z,100.00
2019-03-08T06:41:14.514Z,100.00
2019-03-08T06:43:43.261Z,100.00
2019-03-08T06:46:11.534Z,100.00
2019-03-08T06:48:39.800Z,100.00
2019-03-08T06:51:08.074Z,100.00
2019-03-08T06:53:36.354Z,100.00
2019-03-08T06:56:04.636Z,100.00
2019-03-08T06:58:34.568Z,100.00
2019-03-08T07:01:04.491Z,100.00
2019-03-08T07:03:32.763Z,100.00
2019-03-08T07:06:01.034Z,100.00
2019-03-08T07:08:29.329Z,100.00
2019-03-08T07:10:57.654Z,100.00
2019-03-08T07:13:25.929Z,100.00
2019-03-08T07:15:54.212Z,100.00
2019-03-08T07:18:22.468Z,100.00
2019-03-08T07:20:58.060Z,100.00
2019-03-08T07:23:39.668Z,100.00
2019-03-08T07:26:12.518Z,100.00
2019-03-08T07:28:51.060Z,100.00
2019-03-08T07:31:30.291Z,100.00
2019-03-08T07:34:16.363Z,100.00
2019-03-08T07:36:57.983Z,100.00
2019-03-08T07:39:42.696Z,100.00
2019-03-08T07:42:24.485Z,100.00
2019-03-08T07:45:08.955Z,100.00
2019-03-08T07:47:41.242Z,100.00
2019-03-08T07:50:23.676Z,100.00
2019-03-08T07:52:59.431Z,100.00
2019-03-08T07:55:29.352Z,100.00
2019-03-08T07:58:15.203Z,100.00
2019-03-08T08:00:47.509Z,100.00
2019-03-08T08:03:35.670Z,100.00
2019-03-08T08:06:05.584Z,100.00
2019-03-08T08:08:35.502Z,100.00
2019-03-08T08:11:17.261Z,100.00
2019-03-08T08:14:03.105Z,100.00
2019-03-08T08:16:51.192Z,100.00
2019-03-08T08:19:21.098Z,100.00
2019-03-08T08:22:00.023Z,100.00
2019-03-08T08:24:29.934Z,100.00
2019-03-08T08:27:02.494Z,100.00
2019-03-08T08:29:41.642Z,100.00
2019-03-08T08:32:23.243Z,100.00
2019-03-08T08:34:58.805Z,100.00
2019-03-08T08:37:40.545Z,100.00
2019-03-08T08:40:11.899Z,100.00
2019-03-08T08:42:58.045Z,100.00
2019-03-08T08:45:43.624Z,100.00
2019-03-08T08:48:29.700Z,100.00
2019-03-08T08:50:59.615Z,100.00
2019-03-08T08:53:32.618Z,100.00
2019-03-08T08:56:14.099Z,100.00
2019-03-08T08:58:46.930Z,100.00
2019-03-08T09:01:22.373Z,100.00
2019-03-08T09:03:55.007Z,100.00
2019-03-08T09:06:41.075Z,100.00
2019-03-08T09:09:16.422Z,100.00
2019-03-08T09:11:52.503Z,100.00
2019-03-08T09:14:20.877Z,98.12
2019-03-08T09:17:06.456Z,97.95
2019-03-08T09:19:42.009Z,96.25
2019-03-08T09:22:17.628Z,96.82
2019-03-08T09:24:47.509Z,98.15
2019-03-08T09:27:20.100Z,95.61
2019-03-08T09:30:04.787Z,93.60
2019-03-08T09:32:40.379Z,93.79
2019-03-08T09:35:26.178Z,92.25
2019-03-08T09:37:56.117Z,90.98
2019-03-08T09:40:28.609Z,87.62
2019-03-08T09:43:07.136Z,87.61
2019-03-08T09:45:48.749Z,84.01
2019-03-08T09:48:34.612Z,84.39
2019-03-08T09:51:04.527Z,82.52
2019-03-08T09:53:34.435Z,81.51
2019-03-08T09:56:04.363Z,77.72
2019-03-08T09:58:50.286Z,77.84
2019-03-08T10:01:20.173Z,75.45
2019-03-08T10:03:50.079Z,74.75
2019-03-08T10:06:25.990Z,74.47
2019-03-08T10:08:56.465Z,74.83
2019-03-08T10:11:31.774Z,75.60
2019-03-08T10:14:01.678Z,75.58
2019-03-08T10:16:47.692Z,75.84
2019-03-08T10:19:29.688Z,75.15
2019-03-08T10:22:08.472Z,73.97
2019-03-08T10:24:41.274Z,74.85
2019-03-08T10:27:14.649Z,77.25
2019-03-08T10:29:56.385Z,77.44
2019-03-08T10:32:26.328Z,79.82
2019-03-08T10:35:05.045Z,83.12
2019-03-08T10:37:40.865Z,82.47
2019-03-08T10:40:11.741Z,82.75
2019-03-08T10:42:44.279Z,82.70
2019-03-08T10:45:25.917Z,81.88
2019-03-08T10:48:07.322Z,81.27
2019-03-08T10:50:53.399Z,81.35
2019-03-08T10:53:26.229Z,80.22
2019-03-08T10:55:56.142Z,78.27
2019-03-08T10:58:28.690Z,77.10
2019-03-08T11:01:07.625Z,76.84
2019-03-08T11:03:43.315Z,73.79
2019-03-08T11:06:13.224Z,74.76
2019-03-08T11:08:43.115Z,74.93
2019-03-08T11:11:29.339Z,72.47
2019-03-08T11:14:14.914Z,72.83
2019-03-08T11:16:47.717Z,72.92
2019-03-08T11:19:17.665Z,72.66
2019-03-08T11:22:03.551Z,72.34
2019-03-08T11:24:42.223Z,69.78
2019-03-08T11:27:24.135Z,70.16
2019-03-08T11:29:54.048Z,67.91
2019-03-08T11:32:38.668Z,68.34
2019-03-08T11:35:16.750Z,69.01
2019-03-08T11:37:46.669Z,69.65
2019-03-08T11:40:22.635Z,69.18
2019-03-08T11:42:52.552Z,68.02
2019-03-08T11:45:40.242Z,67.92
2019-03-08T11:48:12.814Z,69.51
2019-03-08T11:51:00.572Z,68.70
2019-03-08T11:53:55.763Z,68.96
2019-03-08T11:56:18.271Z,68.32
2019-03-08T11:59:06.311Z,68.80
2019-03-08T12:01:44.760Z,69.00
2019-03-08T12:04:20.295Z,68.80
2019-03-08T12:06:56.148Z,69.49
2019-03-08T12:09:26.074Z,68.63
2019-03-08T12:11:58.969Z,68.65
2019-03-08T12:14:28.898Z,68.70
2019-03-08T12:17:14.397Z,68.04
2019-03-08T12:19:46.826Z,67.82
2019-03-08T12:22:16.720Z,67.63
2019-03-08T12:24:58.657Z,65.90
2019-03-08T12:27:31.251Z,66.41
2019-03-08T12:30:09.916Z,66.87
2019-03-08T12:32:40.509Z,66.37
2019-03-08T12:35:11.551Z,67.67
2019-03-08T12:37:47.303Z,65.52
2019-03-08T12:40:17.297Z,66.30
2019-03-08T12:43:08.085Z,66.17
2019-03-08T12:45:33.341Z,66.45
2019-03-08T12:48:23.437Z,67.32
2019-03-08T12:50:58.184Z,67.45
2019-03-08T12:53:39.928Z,67.24
2019-03-08T12:56:09.846Z,67.82
2019-03-08T12:58:39.771Z,68.60
2019-03-08T13:01:21.631Z,69.51
2019-03-08T13:03:51.572Z,69.82
2019-03-08T13:06:39.309Z,68.47
2019-03-08T13:09:14.170Z,68.88
2019-03-08T13:11:42.436Z,67.66
2019-03-08T13:14:10.690Z,65.60
2019-03-08T13:16:38.963Z,62.34
2019-03-08T13:19:07.244Z,63.10
2019-03-08T13:21:35.501Z,61.98
2019-03-08T13:24:03.959Z,62.44
2019-03-08T13:26:32.239Z,61.42
2019-03-08T13:29:00.523Z,62.98
2019-03-08T13:31:28.804Z,62.84
2019-03-08T13:33:57.053Z,60.44
2019-03-08T13:36:25.315Z,60.13
2019-03-08T13:38:53.573Z,58.50
2019-03-08T13:41:22.031Z,57.94
2019-03-08T13:43:50.303Z,58.33
2019-03-08T13:46:18.588Z,59.46
2019-03-08T13:48:46.870Z,60.92
2019-03-08T13:51:15.132Z,60.71
2019-03-08T13:53:43.410Z,60.88
2019-03-08T13:56:11.844Z,61.72
2019-03-08T13:58:40.124Z,62.43
2019-03-08T14:01:08.378Z,62.59
2019-03-08T14:03:36.649Z,62.21
2019-03-08T14:06:04.913Z,62.59
2019-03-08T14:08:33.168Z,63.48
2019-03-08T14:11:01.726Z,63.80
2019-03-08T14:13:30.029Z,62.96
2019-03-08T14:15:58.299Z,63.59
2019-03-08T14:18:26.604Z,61.00
2019-03-08T14:26:25.950Z,60.07
2019-03-08T14:28:54.208Z,59.53
2019-03-08T14:31:24.105Z,60.22
2019-03-08T14:33:52.555Z,61.14
2019-03-08T14:36:20.813Z,61.37
2019-03-08T14:38:49.077Z,61.91
2019-03-08T14:41:30.637Z,62.10
2019-03-08T14:43:59.380Z,62.27
2019-03-08T14:46:32.088Z,62.21
2019-03-08T14:49:00.344Z,63.30
2019-03-08T14:51:28.674Z,64.63
2019-03-08T14:53:56.909Z,66.66
2019-03-08T14:56:25.173Z,68.19
2019-03-08T14:58:53.728Z,69.54
2019-03-08T15:01:22.102Z,70.78
2019-03-08T15:03:50.359Z,73.40
2019-03-08T15:06:18.610Z,77.90
2019-03-08T15:08:46.880Z,79.20
2019-03-08T15:11:15.172Z,79.49
2019-03-08T15:13:43.623Z,78.91
2019-03-08T15:16:11.894Z,75.52
2019-03-08T15:18:40.152Z,75.29
2019-03-08T15:21:08.497Z,74.61
2019-03-08T15:23:36.770Z,74.12
2019-03-08T15:26:05.102Z,73.75
2019-03-08T15:28:33.388Z,73.98
2019-03-08T15:31:01.717Z,74.26
2019-03-08T15:33:29.949Z,74.56
2019-03-08T15:35:58.266Z,74.72
2019-03-08T15:38:26.479Z,74.67
2019-03-08T15:40:55.045Z,74.39
2019-03-08T15:43:23.331Z,74.91
2019-03-08T15:45:51.605Z,75.07
2019-03-08T15:48:19.903Z,74.78
2019-03-08T15:50:48.222Z,75.07
2019-03-08T15:53:16.520Z,75.14
2019-03-08T15:55:52.472Z,75.64
2019-03-08T15:58:16.617Z,76.48
2019-03-08T16:00:44.882Z,77.20
2019-03-08T16:03:13.161Z,77.09
2019-03-08T16:05:41.444Z,77.05
2019-03-08T16:08:15.895Z,77.45
2019-03-08T16:10:44.946Z,77.60
2019-03-08T16:13:13.207Z,77.55
2019-03-08T16:15:41.497Z,77.45
2019-03-08T16:18:09.762Z,77.61
2019-03-08T16:20:38.607Z,77.63
2019-03-08T16:23:08.451Z,77.92
2019-03-08T16:25:41.156Z,75.94
2019-03-08T16:28:06.813Z,75.33
2019-03-08T16:30:38.346Z,75.03
2019-03-08T16:33:14.377Z,72.23
2019-03-08T16:35:56.323Z,70.24
2019-03-08T16:38:37.895Z,69.81
2019-03-08T16:41:14.084Z,68.91
2019-03-08T16:43:56.960Z,68.26
2019-03-08T16:46:32.517Z,68.41
2019-03-08T16:49:04.801Z,68.59
2019-03-08T16:51:43.395Z,67.77
2019-03-08T16:54:28.016Z,66.76
2019-03-08T16:57:13.010Z,67.35
2019-03-08T16:59:45.608Z,66.37
2019-03-08T17:02:27.512Z,66.07
2019-03-08T17:05:06.076Z,67.08
2019-03-08T17:07:41.562Z,66.66
2019-03-08T17:10:13.891Z,66.41
2019-03-08T17:12:55.767Z,66.51
2019-03-08T17:15:40.512Z,66.34
2019-03-08T17:18:10.414Z,66.73
2019-03-08T17:20:40.513Z,66.47
2019-03-08T17:23:22.088Z,66.84
2019-03-08T17:25:51.990Z,67.04
2019-03-08T17:28:21.901Z,66.98
2019-03-08T17:30:54.916Z,67.60
2019-03-08T17:33:36.884Z,67.57
2019-03-08T17:36:12.598Z,67.42
2019-03-08T17:38:42.513Z,67.87
2019-03-08T17:41:12.431Z,68.41
2019-03-08T17:43:42.746Z,69.43
2019-03-08T17:46:28.576Z,68.33
2019-03-08T17:49:01.325Z,69.20
2019-03-08T17:51:42.939Z,69.90
2019-03-08T17:54:24.910Z,69.83
2019-03-08T17:57:07.106Z,70.38
2019-03-08T17:59:37.018Z,70.58
2019-03-08T18:02:09.579Z,71.33
2019-03-08T18:04:42.181Z,71.67
2019-03-08T18:07:23.850Z,72.09
2019-03-08T18:09:53.762Z,72.98
2019-03-08T18:12:26.554Z,72.53
2019-03-08T18:15:08.202Z,73.29
2019-03-08T18:17:38.135Z,73.69
2019-03-08T18:20:21.337Z,74.56
2019-03-08T18:22:56.633Z,74.76
2019-03-08T18:25:29.193Z,75.28
2019-03-08T18:28:01.795Z,75.54
2019-03-08T18:30:31.700Z,75.43
2019-03-08T18:33:04.266Z,76.06
2019-03-08T18:35:36.782Z,76.34
2019-03-08T18:38:09.642Z,76.59
2019-03-08T18:40:39.553Z,76.72
2019-03-08T18:43:09.465Z,76.48
2019-03-08T18:45:39.361Z,77.54
2019-03-08T18:48:24.324Z,77.67
2019-03-08T18:50:57.149Z,78.56
2019-03-08T18:53:44.995Z,78.01
2019-03-08T18:56:32.558Z,78.76
2019-03-08T18:59:18.129Z,79.46
2019-03-08T19:01:56.763Z,78.73
2019-03-08T19:04:42.879Z,78.22
2019-03-08T19:07:15.710Z,78.39
2019-03-08T19:09:45.612Z,78.96
2019-03-08T19:12:17.915Z,78.97
2019-03-08T19:15:04.173Z,79.28
2019-03-08T19:17:34.074Z,79.90
2019-03-08T19:20:19.860Z,78.94
2019-03-08T19:23:07.308Z,79.67
2019-03-08T19:25:45.963Z,80.54
2019-03-08T19:28:31.777Z,80.70
2019-03-08T19:31:01.680Z,81.54
2019-03-08T19:33:46.454Z,81.65
2019-03-08T19:36:16.371Z,82.04
2019-03-08T19:38:46.370Z,83.08
2019-03-08T19:41:18.974Z,82.71
2019-03-08T19:43:54.514Z,82.21
2019-03-08T19:46:40.405Z,82.87
2019-03-08T19:49:10.391Z,82.85
2019-03-08T19:51:43.250Z,82.91
2019-03-08T19:54:13.168Z,82.88
2019-03-08T19:56:48.897Z,82.52
2019-03-08T19:59:34.494Z,82.74
2019-03-08T20:02:19.271Z,82.28
2019-03-08T20:05:05.184Z,83.02
2019-03-08T20:07:43.919Z,83.49
2019-03-08T20:10:28.626Z,82.77
2019-03-08T20:12:58.539Z,82.84
2019-03-08T20:15:40.494Z,83.69
2019-03-08T20:18:22.189Z,83.06
2019-03-08T20:21:00.900Z,83.56
2019-03-08T20:23:30.784Z,84.13
2019-03-08T20:26:09.596Z,84.42
2019-03-08T20:28:47.991Z,85.26
2019-03-08T20:31:26.679Z,85.65
2019-03-08T20:34:13.341Z,86.07
2019-03-08T20:36:45.698Z,85.95
2019-03-08T20:39:33.426Z,85.89
2019-03-08T20:42:03.332Z,86.48
2019-03-08T20:44:33.218Z,86.06
2019-03-08T20:47:11.845Z,86.30
2019-03-08T20:49:40.093Z,86.23
2019-03-08T20:52:08.352Z,86.06
2019-03-08T20:54:36.781Z,86.67
2019-03-08T20:57:05.126Z,86.96
2019-03-08T20:59:33.373Z,87.24
2019-03-08T21:02:01.654Z,87.78
2019-03-08T21:04:29.947Z,88.09
2019-03-08T21:06:58.226Z,87.42
2019-03-08T21:09:26.505Z,87.06
2019-03-08T21:11:54.770Z,87.41
2019-03-08T21:14:23.032Z,87.62
2019-03-08T21:16:51.319Z,87.60
2019-03-08T21:19:19.586Z,87.75
2019-03-08T21:21:48.130Z,87.83
2019-03-08T21:24:16.413Z,88.21
2019-03-08T21:26:44.682Z,87.67
2019-03-08T21:29:12.933Z,87.63
2019-03-08T21:31:41.200Z,87.69
2019-03-08T21:34:09.492Z,87.14
2019-03-08T21:36:37.840Z,87.39
2019-03-08T21:39:06.200Z,87.71
2019-03-08T21:41:34.481Z,88.54
2019-03-08T21:44:02.752Z,88.68
2019-03-08T21:46:31.029Z,89.31
2019-03-08T21:48:59.368Z,89.33
2019-03-08T21:51:27.698Z,89.39
2019-03-08T21:53:55.983Z,89.01
2019-03-08T21:56:24.228Z,88.87
2019-03-08T21:58:52.533Z,88.60
2019-03-08T22:01:20.786Z,89.23
2019-03-08T22:03:50.967Z,89.37
2019-03-08T22:06:19.217Z,89.30
2019-03-08T22:08:57.821Z,88.92
2019-03-08T22:11:27.715Z,89.00
2019-03-08T22:13:55.982Z,88.72
2019-03-08T22:16:24.253Z,88.82
2019-03-08T22:18:52.517Z,88.91
2019-03-08T22:21:20.789Z,88.95
2019-03-08T22:23:49.033Z,88.82
2019-03-08T22:26:17.296Z,88.50
2019-03-08T22:28:45.828Z,88.51
2019-03-08T22:31:14.099Z,88.53
2019-03-08T22:33:43.272Z,88.84
2019-03-08T22:36:11.553Z,88.94
2019-03-08T22:38:39.813Z,88.68
2019-03-08T22:41:08.092Z,89.09
2019-03-08T22:43:36.362Z,88.76
2019-03-08T22:46:04.648Z,88.75
2019-03-08T22:48:32.931Z,89.03
2019-03-08T22:51:01.224Z,88.74
2019-03-08T22:53:29.493Z,89.10
2019-03-08T22:55:57.766Z,89.23
2019-03-08T22:58:26.027Z,89.24
2019-03-08T23:00:59.123Z,89.14
2019-03-08T23:03:28.200Z,89.73
2019-03-08T23:05:56.471Z,89.35
2019-03-08T23:08:24.731Z,89.58
2019-03-08T23:10:53.026Z,89.75
2019-03-08T23:13:21.269Z,89.76
2019-03-08T23:15:49.591Z,89.82
2019-03-08T23:18:17.848Z,89.96
2019-03-08T23:20:46.796Z,90.15
2019-03-08T23:23:15.233Z,90.33
2019-03-08T23:25:43.499Z,90.04
2019-03-08T23:28:25.127Z,90.04
2019-03-08T23:30:55.037Z,90.26
2019-03-08T23:33:23.582Z,90.37
2019-03-08T23:35:51.844Z,90.10
2019-03-08T23:38:20.109Z,90.37
2019-03-08T23:40:48.361Z,90.73
2019-03-08T23:43:16.639Z,90.42
2019-03-08T23:45:44.910Z,90.64
2019-03-08T23:48:13.177Z,91.32
2019-03-08T23:50:41.454Z,91.15
2019-03-08T23:53:09.704Z,91.19
2019-03-08T23:55:37.972Z,91.40
2019-03-08T23:58:06.241Z,91.47
